Time;durP1;ratioP1;P1;durP2;ratioP2;P2;SDS_P1;SDS_P2;PMS_P1;PMS_P2;Temp;Humidity;BMP_temperature;BMP_pressure;BME280_temperature;BME280_humidity;BME280_pressure;Samples;Min_cycle;Max_cycle;Signal;HPM_P1;HPM_P2
2023/08/24 00:01:14;;;;;;;5.80;5.20;;;;;;;20.44;80.30;151167.47;4993880;28;20221;-65
2023/08/24 00:03:40;;;;;;;8.30;5.37;;;;;;;20.40;80.86;151157.47;4995971;28;20263;-66
2023/08/24 00:06:07;;;;;;;6.40;5.13;;;;;;;20.38;80.21;151151.22;4997187;28;20216;-66
2023/08/24 00:08:34;;;;;;;8.97;5.00;;;;;;;20.47;79.53;151173.78;4993654;28;20240;-65
2023/08/24 00:11:00;;;;;;;7.33;5.30;;;;;;;20.58;78.23;151200.06;4997657;28;20609;-65
2023/08/24 00:13:27;;;;;;;7.53;5.23;;;;;;;20.65;77.80;151217.59;4993915;28;21148;-65
2023/08/24 00:15:55;;;;;;;6.30;5.27;;;;;;;20.64;77.02;151216.38;4995524;28;21145;-65
2023/08/24 00:18:22;;;;;;;5.23;4.70;;;;;;;20.64;77.01;151216.38;4997359;28;20255;-65
2023/08/24 00:20:49;;;;;;;8.37;4.87;;;;;;;20.64;76.51;151216.38;4993739;28;20234;-65
2023/08/24 00:23:16;;;;;;;10.07;6.10;;;;;;;20.65;77.29;151217.59;4990380;28;20657;-65
2023/08/24 00:25:42;;;;;;;6.37;5.00;;;;;;;20.68;76.90;151225.13;4995337;28;20764;-65
2023/08/24 00:28:09;;;;;;;8.27;5.30;;;;;;;20.74;75.76;151240.16;4996534;28;20219;-65
2023/08/24 00:30:37;;;;;;;10.57;5.40;;;;;;;20.83;73.73;151260.25;4984741;28;20580;-65
2023/08/24 00:33:05;;;;;;;8.67;5.30;;;;;;;20.99;74.21;151299.09;4984830;28;20229;-66
2023/08/24 00:35:31;;;;;;;12.13;4.80;;;;;;;21.13;74.86;151332.97;4971673;28;20243;-65
2023/08/24 00:37:58;;;;;;;7.83;4.77;;;;;;;21.44;68.90;151408.13;4978901;28;20225;-65
2023/08/24 00:40:26;;;;;;;12.07;5.00;;;;;;;21.52;68.07;151428.19;4980692;28;20228;-65
2023/08/24 00:42:53;;;;;;;8.97;5.50;;;;;;;21.77;66.14;151489.66;4995962;28;20231;-65
2023/08/24 00:45:19;;;;;;;7.93;4.83;;;;;;;21.98;65.53;151539.81;4994822;28;20230;-65
2023/08/24 00:47:48;;;;;;;5.80;4.70;;;;;;;21.80;66.19;151497.19;5000735;28;20229;-65
2023/08/24 00:50:18;;;;;;;7.27;5.00;;;;;;;22.06;65.63;151559.88;5001931;28;20337;-65
2023/08/24 00:52:47;;;;;;;5.97;4.83;;;;;;;21.86;65.80;151509.72;5004973;28;20243;-65
2023/08/24 00:55:14;;;;;;;5.63;4.60;;;;;;;21.81;64.93;151498.47;4977041;28;20595;-65
2023/08/24 00:57:42;;;;;;;6.40;4.50;;;;;;;21.76;66.64;151485.91;5000588;28;20226;-65
2023/08/24 01:00:10;;;;;;;7.37;4.40;;;;;;;21.68;67.75;151467.13;4987263;28;20256;-65
2023/08/24 01:02:36;;;;;;;7.60;4.87;;;;;;;21.55;67.71;151434.50;4980303;28;20300;-65
2023/08/24 01:05:04;;;;;;;9.40;4.83;;;;;;;21.46;69.43;151413.16;5002251;28;20584;-65
2023/08/24 01:07:33;;;;;;;8.53;4.83;;;;;;;21.36;69.19;151390.59;5000473;28;20236;-65
2023/08/24 01:10:00;;;;;;;6.67;4.60;;;;;;;21.29;70.32;151373.03;5002631;28;20230;-65
2023/08/24 01:12:33;;;;;;;8.80;4.87;;;;;;;21.19;70.24;151349.25;4995700;28;20229;-65
2023/08/24 01:15:05;;;;;;;7.07;4.87;;;;;;;21.20;69.57;151351.75;4987871;28;20717;-65
2023/08/24 01:17:33;;;;;;;6.23;4.50;;;;;;;21.14;71.38;151335.47;4978147;28;20251;-65
2023/08/24 01:20:00;;;;;;;7.27;4.97;;;;;;;21.05;73.17;151315.41;4998379;28;20713;-65
2023/08/24 01:22:35;;;;;;;6.43;5.00;;;;;;;20.99;74.13;151300.38;4995470;28;20771;-65
2023/08/24 01:25:09;;;;;;;8.10;4.83;;;;;;;20.90;74.77;151277.81;4981542;28;20991;-65
2023/08/24 01:27:38;;;;;;;7.00;5.03;;;;;;;20.81;75.67;151255.25;4999140;28;20232;-65
2023/08/24 01:30:06;;;;;;;7.33;4.90;;;;;;;20.75;76.11;151241.41;4999511;28;20229;-65
2023/08/24 01:32:33;;;;;;;7.47;5.00;;;;;;;20.63;78.13;151212.59;4983598;28;20231;-65
2023/08/24 01:35:00;;;;;;;5.87;5.30;;;;;;;20.55;80.11;151192.53;4994181;28;20222;-65
2023/08/24 01:37:28;;;;;;;6.57;5.03;;;;;;;20.43;80.20;151164.97;4993974;28;20242;-65
2023/08/24 01:40:01;;;;;;;9.80;5.67;;;;;;;20.36;81.25;151147.44;4978753;28;20226;-65
2023/08/24 01:42:32;;;;;;;6.17;5.20;;;;;;;20.27;81.44;151126.16;4995956;28;20226;-64
2023/08/24 01:45:04;;;;;;;11.20;5.40;;;;;;;20.26;84.20;151123.66;4988455;28;20237;-64
2023/08/24 01:47:32;;;;;;;7.10;5.47;;;;;;;20.25;84.68;151119.88;4992593;28;21708;-64
2023/08/24 01:50:00;;;;;;;7.03;5.40;;;;;;;20.18;85.07;151104.84;4985602;28;20236;-64
2023/08/24 01:52:28;;;;;;;7.03;5.47;;;;;;;20.14;86.22;151093.59;4978126;28;20236;-64
2023/08/24 01:54:55;;;;;;;6.43;5.60;;;;;;;20.10;86.79;151084.84;4980259;28;20217;-65
2023/08/24 01:57:22;;;;;;;9.67;5.80;;;;;;;20.11;87.17;151086.06;4977591;28;20240;-65
2023/08/24 01:59:49;;;;;;;8.93;5.60;;;;;;;20.11;86.90;151087.34;4983424;28;21921;-65
2023/08/24 02:02:17;;;;;;;6.00;5.40;;;;;;;20.03;87.06;151067.28;5000676;28;20225;-65
2023/08/24 02:04:44;;;;;;;8.63;5.60;;;;;;;20.01;87.98;151062.28;4983575;28;20236;-65
2023/08/24 02:07:16;;;;;;;7.27;5.90;;;;;;;20.00;88.70;151061.00;4978853;28;20671;-65
2023/08/24 02:09:43;;;;;;;7.43;5.63;;;;;;;19.96;88.05;151049.75;4985928;28;20238;-65
2023/08/24 02:12:09;;;;;;;8.97;5.40;;;;;;;19.98;90.14;151054.78;4979231;28;20221;-65
2023/08/24 02:14:36;;;;;;;7.03;5.90;;;;;;;19.94;88.75;151045.97;4971077;28;20241;-64
2023/08/24 02:17:03;;;;;;;6.30;5.70;;;;;;;19.89;88.20;151034.72;4978609;28;20226;-65
2023/08/24 02:19:32;;;;;;;9.23;6.10;;;;;;;19.83;88.70;151019.66;4993840;28;20753;-65
2023/08/24 02:21:59;;;;;;;6.70;5.67;;;;;;;19.79;89.81;151008.34;4999699;28;20231;-65
2023/08/24 02:24:26;;;;;;;7.50;5.90;;;;;;;19.77;91.49;151005.84;4978595;28;20235;-65
2023/08/24 02:26:53;;;;;;;7.23;6.40;;;;;;;19.68;91.57;150982.06;4979866;28;20243;-66
2023/08/24 02:29:19;;;;;;;9.37;6.43;;;;;;;19.65;92.45;150974.56;4983733;28;20223;-66
2023/08/24 02:31:46;;;;;;;7.67;6.43;;;;;;;19.61;93.27;150965.75;4996831;28;20241;-66
2023/08/24 02:34:14;;;;;;;6.93;6.17;;;;;;;19.55;92.41;150952.00;4977913;28;20232;-66
2023/08/24 02:36:42;;;;;;;7.43;5.67;;;;;;;19.52;92.54;150944.50;4993449;28;20236;-65
2023/08/24 02:39:09;;;;;;;7.87;5.83;;;;;;;19.49;93.39;150935.75;4993132;28;20227;-65
2023/08/24 02:41:36;;;;;;;6.70;6.00;;;;;;;19.44;93.05;150924.47;4994192;28;20399;-65
2023/08/24 02:44:02;;;;;;;8.43;6.40;;;;;;;19.35;94.08;150903.19;4996250;28;20233;-65
2023/08/24 02:46:29;;;;;;;9.00;5.97;;;;;;;19.33;94.28;150899.41;4983192;28;20226;-65
2023/08/24 02:48:56;;;;;;;8.23;6.30;;;;;;;19.25;94.47;150878.16;4985143;28;20311;-65
2023/08/24 02:51:24;;;;;;;6.23;5.27;;;;;;;19.21;91.84;150869.34;4972006;28;21149;-65
2023/08/24 02:53:52;;;;;;;12.07;5.77;;;;;;;19.15;91.28;150855.59;4996812;28;20232;-65
2023/08/24 02:56:21;;;;;;;6.77;5.47;;;;;;;19.10;92.19;150843.09;4973743;28;20230;-65
2023/08/24 02:58:47;;;;;;;9.30;5.80;;;;;;;19.09;93.55;150840.59;4997274;28;20242;-65
2023/08/24 03:01:14;;;;;;;7.87;5.60;;;;;;;19.09;92.80;150839.31;4991435;28;20220;-65
2023/08/24 03:03:40;;;;;;;8.10;5.17;;;;;;;19.13;93.72;150849.31;4980635;28;20242;-65
2023/08/24 03:06:09;;;;;;;6.97;5.80;;;;;;;19.14;92.41;150853.09;4985843;28;20314;-65
2023/08/24 03:08:37;;;;;;;11.73;6.60;;;;;;;19.21;92.69;150869.34;4979271;28;20803;-64
2023/08/24 03:11:05;;;;;;;7.97;5.83;;;;;;;19.25;92.31;150879.38;4980174;28;21000;-64
2023/08/24 03:13:32;;;;;;;6.40;5.00;;;;;;;19.36;91.17;150904.41;4984526;28;20238;-64
2023/08/24 03:16:04;;;;;;;6.40;5.57;;;;;;;19.41;90.56;150916.94;4976790;28;20226;-64
2023/08/24 03:18:31;;;;;;;8.70;5.03;;;;;;;19.39;88.31;150913.22;4977940;28;20560;-64
2023/08/24 03:20:58;;;;;;;7.20;5.07;;;;;;;19.45;89.98;150928.25;4978441;28;20934;-64
2023/08/24 03:23:24;;;;;;;6.33;5.03;;;;;;;19.56;90.74;150954.50;4976989;28;20231;-64
2023/08/24 03:25:51;;;;;;;5.43;4.90;;;;;;;19.61;87.32;150965.75;4994937;28;20223;-64
2023/08/24 03:28:19;;;;;;;6.60;4.50;;;;;;;19.62;87.14;150969.53;4976680;28;20250;-64
2023/08/24 03:33:44;;;;;;;7.80;5.07;;;;;;;19.50;89.03;150939.47;4969122;28;20287;-57
2023/08/24 03:36:12;;;;;;;6.50;4.63;;;;;;;19.49;90.41;150935.75;4968002;28;20221;-56
2023/08/24 03:38:39;;;;;;;7.07;4.77;;;;;;;19.41;91.76;150918.22;4974305;28;20235;-57
2023/08/24 03:41:06;;;;;;;7.43;5.00;;;;;;;19.36;91.71;150904.41;4979330;28;20235;-57
2023/08/24 03:43:36;;;;;;;7.03;5.67;;;;;;;19.36;89.75;150904.41;4992510;28;20235;-57
2023/08/24 03:46:04;;;;;;;9.17;5.23;;;;;;;19.25;89.89;150879.38;4991137;28;20317;-57
2023/08/24 03:48:30;;;;;;;8.27;5.50;;;;;;;19.17;91.24;150859.34;4987550;28;22432;-57
2023/08/24 03:50:58;;;;;;;8.13;6.07;;;;;;;19.07;92.08;150834.34;4978736;28;20229;-57
2023/08/24 03:53:25;;;;;;;8.63;5.60;;;;;;;19.02;93.09;150824.31;4987114;28;20286;-57
2023/08/24 03:55:52;;;;;;;6.20;5.60;;;;;;;19.00;95.16;150818.03;4975723;28;20210;-57
2023/08/24 03:58:21;;;;;;;8.50;5.97;;;;;;;18.84;96.73;150780.44;4990678;28;20286;-57
2023/08/24 04:00:50;;;;;;;9.73;5.57;;;;;;;18.80;97.76;150769.19;4992139;28;20233;-57
2023/08/24 04:03:16;;;;;;;8.87;6.00;;;;;;;18.73;97.87;150754.16;4988563;28;20231;-57
2023/08/24 04:05:43;;;;;;;8.33;5.80;;;;;;;18.72;97.64;150750.38;4992510;28;20235;-56
2023/08/24 04:08:10;;;;;;;8.43;5.40;;;;;;;18.69;96.68;150742.88;4991259;28;20644;-56
2023/08/24 04:10:38;;;;;;;11.10;5.70;;;;;;;18.70;98.59;150746.66;4992006;28;20322;-57
2023/08/24 04:13:05;;;;;;;9.73;6.13;;;;;;;18.71;98.29;150747.88;4988283;28;20233;-56
2023/08/24 04:15:31;;;;;;;6.53;5.33;;;;;;;18.68;98.65;150740.38;4981270;28;20582;-57
2023/08/24 04:18:00;;;;;;;9.53;5.67;;;;;;;18.69;99.16;150742.88;5011126;28;20711;-57
2023/08/24 04:20:26;;;;;;;6.00;5.40;;;;;;;18.71;99.62;150747.88;5007220;28;20788;-56
2023/08/24 04:22:53;;;;;;;9.87;6.10;;;;;;;18.68;99.17;150741.66;4993976;28;20221;-56
2023/08/24 04:25:20;;;;;;;9.60;6.20;;;;;;;18.65;99.89;150732.88;4989514;28;20227;-57
2023/08/24 04:27:47;;;;;;;12.47;6.33;;;;;;;18.66;99.45;150736.66;4998065;28;20328;-57
2023/08/24 04:30:14;;;;;;;10.13;6.17;;;;;;;18.70;99.16;150745.38;4993895;28;20314;-57
2023/08/24 04:32:40;;;;;;;7.47;6.37;;;;;;;18.67;99.68;150739.16;4996433;28;20306;-54
2023/08/24 04:35:10;;;;;;;10.80;6.00;;;;;;;18.79;100.00;150766.69;4994092;28;20276;-56
2023/08/24 04:37:37;;;;;;;8.83;6.00;;;;;;;18.78;100.00;150765.41;4977144;28;20227;-57
2023/08/24 04:40:07;;;;;;;11.00;6.10;;;;;;;18.78;100.00;150765.41;4998027;28;20301;-57
2023/08/24 04:42:33;;;;;;;10.10;6.33;;;;;;;18.85;100.00;150782.94;4995581;28;20698;-57
2023/08/24 04:45:00;;;;;;;6.57;5.73;;;;;;;18.91;99.67;150795.47;4996507;28;20227;-56
2023/08/24 04:47:27;;;;;;;10.20;6.00;;;;;;;18.94;99.79;150804.25;5009329;28;20234;-57
2023/08/24 04:49:53;;;;;;;12.97;6.13;;;;;;;19.00;100.00;150818.03;4991404;28;20295;-57
2023/08/24 04:52:21;;;;;;;10.83;5.83;;;;;;;19.06;99.98;150833.06;5010760;28;20883;-56
2023/08/24 04:54:48;;;;;;;11.50;6.43;;;;;;;19.13;100.00;150849.31;4996851;28;20234;-56
2023/08/24 04:57:18;;;;;;;7.50;5.63;;;;;;;19.20;98.51;150866.84;4990220;28;20580;-57
2023/08/24 04:59:45;;;;;;;8.37;5.97;;;;;;;19.25;97.92;150879.38;4997363;28;20257;-56
2023/08/24 05:02:16;;;;;;;7.10;5.30;;;;;;;19.32;97.64;150895.69;4992650;28;20332;-56
2023/08/24 05:04:43;;;;;;;6.40;5.73;;;;;;;19.36;97.96;150904.41;4997136;28;20254;-55
2023/08/24 05:07:09;;;;;;;11.47;5.97;;;;;;;19.43;97.94;150923.22;4994912;28;20355;-56
2023/08/24 05:09:37;;;;;;;7.10;5.63;;;;;;;19.51;96.87;150942.00;4996998;28;20827;-56
2023/08/24 05:12:05;;;;;;;8.67;5.63;;;;;;;19.54;97.49;150949.50;4994771;28;20705;-54
2023/08/24 05:14:33;;;;;;;6.63;5.83;;;;;;;19.59;97.75;150960.81;4991853;28;20239;-56
2023/08/24 05:16:59;;;;;;;8.13;6.33;;;;;;;19.58;97.09;150958.28;4997886;28;20221;-54
2023/08/24 05:19:26;;;;;;;7.23;6.00;;;;;;;19.60;96.61;150963.31;4993414;28;20224;-56
2023/08/24 05:21:52;;;;;;;6.87;6.10;;;;;;;19.68;95.34;150982.06;4996425;28;20800;-56
2023/08/24 05:24:19;;;;;;;11.17;6.30;;;;;;;19.64;95.61;150972.06;4993297;28;20235;-56
2023/08/24 05:26:47;;;;;;;11.27;6.53;;;;;;;19.68;96.88;150982.06;4980497;28;20568;-55
2023/08/24 05:29:13;;;;;;;9.30;6.07;;;;;;;19.74;96.54;150997.09;4990290;28;20226;-56
2023/08/24 05:31:40;;;;;;;9.33;6.20;;;;;;;19.72;97.82;150992.09;4994819;28;20231;-56
2023/08/24 05:34:06;;;;;;;6.67;5.77;;;;;;;19.81;98.43;151013.38;4995598;28;20245;-56
2023/08/24 05:36:33;;;;;;;10.40;6.07;;;;;;;19.84;98.05;151020.88;4987731;28;20228;-56
2023/08/24 05:39:00;;;;;;;7.63;5.63;;;;;;;19.84;97.58;151022.16;4996990;28;20714;-54
2023/08/24 05:41:26;;;;;;;8.57;7.00;;;;;;;19.88;97.00;151030.91;4992655;28;20227;-56
2023/08/24 05:43:54;;;;;;;12.10;7.53;;;;;;;19.94;96.45;151044.75;4995213;28;20713;-56
2023/08/24 05:46:21;;;;;;;9.80;6.97;;;;;;;19.94;92.89;151044.75;4992739;28;20240;-56
2023/08/24 05:48:47;;;;;;;12.43;8.37;;;;;;;19.74;95.17;150998.31;4994579;28;20315;-54
2023/08/24 05:51:14;;;;;;;12.47;9.80;;;;;;;19.59;96.68;150962.03;4992235;28;20228;-56
2023/08/24 05:53:41;;;;;;;15.03;9.50;;;;;;;19.54;97.33;150948.28;4994788;28;20598;-56
2023/08/24 05:56:08;;;;;;;12.97;10.00;;;;;;;19.46;97.93;150929.47;4995385;28;20227;-54
2023/08/24 05:58:34;;;;;;;13.33;10.67;;;;;;;19.41;98.34;150916.94;4993201;28;20235;-54
2023/08/24 06:01:03;;;;;;;12.17;10.30;;;;;;;19.21;100.00;150868.13;4994372;28;20316;-56
2023/08/24 06:03:29;;;;;;;17.63;10.27;;;;;;;19.16;100.00;150856.84;4994306;28;20318;-56
2023/08/24 06:06:02;;;;;;;13.03;11.00;;;;;;;19.18;100.00;150861.84;4998304;28;20245;-56
2023/08/24 06:08:28;;;;;;;14.27;11.40;;;;;;;19.18;100.00;150861.84;4992505;28;20326;-56
2023/08/24 06:10:55;;;;;;;14.10;11.60;;;;;;;19.17;100.00;150859.34;4993779;28;20224;-56
2023/08/24 06:13:22;;;;;;;19.07;12.17;;;;;;;19.22;100.00;150870.63;4994007;28;20728;-57
2023/08/24 06:15:48;;;;;;;15.27;11.37;;;;;;;19.25;100.00;150879.38;4994186;28;20239;-56
2023/08/24 06:18:16;;;;;;;13.83;9.87;;;;;;;19.47;100.00;150931.97;4992678;28;20217;-56
2023/08/24 06:20:43;;;;;;;13.50;9.77;;;;;;;19.55;100.00;150950.78;4996174;28;20320;-56
2023/08/24 06:23:09;;;;;;;11.80;10.10;;;;;;;19.71;100.00;150990.81;4996034;28;20232;-57
2023/08/24 06:25:36;;;;;;;14.47;9.93;;;;;;;19.79;99.49;151009.63;4991932;28;20717;-57
2023/08/24 06:28:04;;;;;;;13.67;9.60;;;;;;;19.94;99.09;151044.75;4996564;28;20220;-57
2023/08/24 06:30:32;;;;;;;18.03;10.83;;;;;;;19.75;99.71;150999.59;4993672;28;20237;-57
2023/08/24 06:32:59;;;;;;;11.70;10.50;;;;;;;19.98;98.95;151056.00;4993782;28;20227;-56
2023/08/24 06:35:27;;;;;;;11.77;9.20;;;;;;;20.13;98.37;151092.34;4986380;28;20727;-56
2023/08/24 06:37:54;;;;;;;14.83;9.90;;;;;;;20.31;97.17;151136.19;4995196;28;20223;-56
2023/08/24 06:40:21;;;;;;;12.53;9.57;;;;;;;20.52;95.72;151185.03;4988896;28;20227;-55
2023/08/24 06:42:47;;;;;;;16.53;8.87;;;;;;;20.52;93.55;151186.31;4992955;28;20238;-56
2023/08/24 06:45:14;;;;;;;14.00;9.10;;;;;;;20.68;92.85;151225.13;4991826;28;20884;-56
2023/08/24 06:47:41;;;;;;;11.53;9.00;;;;;;;20.80;93.88;151253.97;4996981;28;20247;-55
2023/08/24 06:50:08;;;;;;;11.93;9.00;;;;;;;20.72;95.37;151233.88;4995208;28;20711;-56
2023/08/24 06:52:35;;;;;;;10.73;9.10;;;;;;;20.74;97.03;151240.16;4991565;28;20243;-54
2023/08/24 06:55:02;;;;;;;11.23;8.97;;;;;;;20.73;97.38;151237.66;4989354;28;20222;-56
2023/08/24 06:57:29;;;;;;;10.67;8.13;;;;;;;20.81;96.24;151256.47;4991389;28;20274;-56
2023/08/24 06:59:56;;;;;;;11.50;7.90;;;;;;;21.00;95.29;151301.59;4992125;28;20233;-56
2023/08/24 07:02:23;;;;;;;11.17;8.27;;;;;;;21.16;94.35;151340.47;4989163;28;20230;-56
2023/08/24 07:04:49;;;;;;;12.27;7.80;;;;;;;21.31;91.73;151378.03;4994416;28;20277;-56
2023/08/24 07:07:16;;;;;;;9.47;8.20;;;;;;;21.41;89.21;151400.63;4990358;28;20219;-56
2023/08/24 07:09:44;;;;;;;11.57;8.73;;;;;;;21.26;89.81;151365.50;4993843;28;20234;-56
2023/08/24 07:12:16;;;;;;;8.73;7.17;;;;;;;21.40;88.31;151399.38;4986332;28;20229;-56
2023/08/24 07:14:43;;;;;;;10.47;8.53;;;;;;;21.48;87.89;151418.16;4991412;28;20234;-57
2023/08/24 07:17:09;;;;;;;12.13;8.00;;;;;;;21.65;87.22;151460.84;4991692;28;20225;-57
2023/08/24 07:19:36;;;;;;;14.33;8.20;;;;;;;21.76;86.59;151487.16;4991608;28;20237;-57
2023/08/24 07:22:03;;;;;;;11.07;8.13;;;;;;;21.92;84.38;151526.06;4996702;28;20236;-56
2023/08/24 07:24:30;;;;;;;9.43;8.33;;;;;;;21.94;83.90;151531.06;4991184;28;20240;-56
2023/08/24 07:26:58;;;;;;;8.87;7.70;;;;;;;22.00;84.35;151544.84;4990729;28;20235;-56
2023/08/24 07:29:25;;;;;;;11.67;7.60;;;;;;;22.09;83.59;151566.19;4989879;28;20227;-56
2023/08/24 07:31:51;;;;;;;8.93;7.37;;;;;;;22.23;84.33;151600.03;4993336;28;20243;-56
2023/08/24 07:34:18;;;;;;;9.90;7.53;;;;;;;22.34;83.27;151627.63;4990147;28;20235;-56
2023/08/24 07:36:46;;;;;;;11.87;8.17;;;;;;;22.23;83.84;151601.31;4991044;28;20245;-56
2023/08/24 07:39:13;;;;;;;9.90;7.67;;;;;;;22.32;81.89;151621.31;4991433;28;20300;-55
2023/08/24 07:41:40;;;;;;;8.97;7.73;;;;;;;22.45;82.90;151652.75;4993897;28;20987;-56
2023/08/24 07:44:08;;;;;;;11.87;7.97;;;;;;;22.39;83.44;151640.16;4993647;28;20240;-56
2023/08/24 07:46:34;;;;;;;11.80;7.57;;;;;;;22.52;82.29;151670.31;4991023;28;20240;-55
2023/08/24 07:49:01;;;;;;;8.93;7.43;;;;;;;22.46;83.71;151655.25;4991289;28;20217;-57
2023/08/24 07:51:28;;;;;;;10.90;7.83;;;;;;;22.58;81.36;151684.09;4991235;28;20370;-57
2023/08/24 07:53:54;;;;;;;10.77;7.97;;;;;;;22.37;80.95;151633.88;4991336;28;20222;-57
2023/08/24 07:56:22;;;;;;;10.23;8.13;;;;;;;22.34;81.91;151626.34;4989208;28;20730;-57
2023/08/24 07:58:49;;;;;;;15.47;7.90;;;;;;;22.42;81.49;151647.69;4994286;28;20237;-55
2023/08/24 08:01:17;;;;;;;14.77;7.80;;;;;;;22.47;82.12;151657.78;4991155;28;20243;-56
2023/08/24 08:03:43;;;;;;;10.90;7.50;;;;;;;22.43;80.94;151648.91;4996518;28;20738;-56
2023/08/24 08:06:10;;;;;;;10.50;7.80;;;;;;;22.60;79.67;151689.09;4993909;28;20239;-56
2023/08/24 08:08:37;;;;;;;9.67;7.20;;;;;;;22.69;79.33;151711.69;4993179;28;20246;-57
2023/08/24 08:11:04;;;;;;;9.63;7.57;;;;;;;22.83;80.52;151746.81;5002955;28;20237;-57
2023/08/24 08:13:30;;;;;;;9.80;8.07;;;;;;;22.64;80.51;151699.16;4989877;28;20406;-56
2023/08/24 08:16:03;;;;;;;8.53;7.37;;;;;;;22.88;81.10;151758.09;4991444;28;20247;-56
2023/08/24 08:18:30;;;;;;;9.03;7.63;;;;;;;22.94;78.79;151773.16;4990063;28;20324;-56
2023/08/24 08:20:57;;;;;;;8.90;6.97;;;;;;;22.97;79.47;151779.44;4986822;28;20234;-57
2023/08/24 08:23:24;;;;;;;9.33;7.80;;;;;;;23.00;78.80;151786.97;4992243;28;20222;-56
2023/08/24 08:25:51;;;;;;;9.60;8.00;;;;;;;22.90;79.91;151761.88;4993013;28;20232;-56
2023/08/24 08:28:18;;;;;;;10.10;7.17;;;;;;;23.01;79.41;151789.47;4988528;28;20258;-57
2023/08/24 08:30:45;;;;;;;12.63;6.97;;;;;;;23.11;79.37;151814.56;4990328;28;20325;-57
2023/08/24 08:33:13;;;;;;;11.70;7.07;;;;;;;23.29;79.21;151857.28;4988496;28;20924;-55
2023/08/24 08:35:41;;;;;;;10.10;6.87;;;;;;;23.29;78.44;151858.53;4992872;28;20225;-57
2023/08/24 08:38:08;;;;;;;13.10;7.43;;;;;;;23.37;78.11;151877.31;4993956;28;20221;-57
2023/08/24 08:40:37;;;;;;;10.43;7.03;;;;;;;23.43;77.88;151891.16;4990903;28;20238;-57
2023/08/24 08:43:04;;;;;;;8.53;7.67;;;;;;;23.34;76.61;151868.56;5009768;28;20551;-57
2023/08/24 08:45:31;;;;;;;9.57;7.13;;;;;;;23.49;76.54;151904.94;4986819;28;20242;-57
2023/08/24 08:47:59;;;;;;;7.70;6.73;;;;;;;23.57;76.49;151926.31;4989991;28;20241;-59
2023/08/24 08:50:26;;;;;;;8.43;7.10;;;;;;;23.72;75.01;151962.69;4986726;28;20243;-58
2023/08/24 08:52:54;;;;;;;9.60;7.13;;;;;;;23.69;75.53;151955.16;4993509;28;20226;-59
2023/08/24 08:55:21;;;;;;;11.80;6.87;;;;;;;23.78;75.25;151976.50;4991214;28;20239;-59
2023/08/24 08:57:49;;;;;;;11.07;6.87;;;;;;;23.98;75.15;152024.16;4986630;28;20218;-58
2023/08/24 09:00:17;;;;;;;10.50;6.70;;;;;;;23.89;74.57;152002.84;4997872;28;20316;-58
2023/08/24 09:02:46;;;;;;;11.40;7.70;;;;;;;23.70;77.63;151956.44;4992201;28;20255;-59
2023/08/24 09:05:12;;;;;;;14.27;7.73;;;;;;;23.94;76.51;152015.41;4995428;28;20235;-56
2023/08/24 09:07:40;;;;;;;9.83;6.83;;;;;;;24.13;76.05;152060.66;4997671;28;20259;-56
2023/08/24 09:10:09;;;;;;;10.77;7.50;;;;;;;24.18;74.84;152073.19;4997276;28;20244;-56
2023/08/24 09:12:36;;;;;;;10.33;7.67;;;;;;;23.92;75.17;152009.09;4995917;28;20243;-55
2023/08/24 09:15:04;;;;;;;12.60;6.67;;;;;;;24.23;75.22;152084.47;4998005;28;20603;-56
2023/08/24 09:17:31;;;;;;;10.77;7.47;;;;;;;24.26;75.49;152092.00;4994285;28;20261;-57
2023/08/24 09:20:00;;;;;;;10.80;7.00;;;;;;;24.51;73.90;152152.28;5011917;28;20228;-56
2023/08/24 09:22:27;;;;;;;9.00;7.27;;;;;;;24.64;73.06;152183.66;4995669;28;20258;-57
2023/08/24 09:24:54;;;;;;;9.53;7.07;;;;;;;24.76;72.30;152215.13;4996122;28;20228;-57
2023/08/24 09:27:22;;;;;;;10.50;7.27;;;;;;;24.84;72.39;152233.94;4992023;28;20259;-57
2023/08/24 09:29:50;;;;;;;10.60;6.67;;;;;;;25.06;72.14;152287.94;4996241;28;20221;-57
2023/08/24 09:32:23;;;;;;;8.10;6.93;;;;;;;25.14;71.25;152306.78;4986226;28;20225;-57
2023/08/24 09:34:50;;;;;;;13.20;7.10;;;;;;;25.02;73.00;152276.66;4995193;28;20327;-56
2023/08/24 09:37:17;;;;;;;10.20;7.13;;;;;;;25.03;72.85;152280.38;4991182;28;20216;-57
2023/08/24 09:39:43;;;;;;;11.77;7.33;;;;;;;25.18;72.06;152315.56;4996624;28;20244;-56
2023/08/24 09:42:41;;;;;;;10.53;7.63;;;;;;;25.45;71.20;152380.94;4992801;28;20289;-57
2023/08/24 09:45:10;;;;;;;11.50;6.80;;;;;;;25.50;71.01;152393.50;4994073;28;20290;-57
2023/08/24 09:47:37;;;;;;;11.60;6.73;;;;;;;25.65;68.94;152429.91;4991730;28;20239;-57
2023/08/24 09:50:05;;;;;;;9.07;6.80;;;;;;;25.66;67.20;152431.19;4997647;28;20722;-57
2023/08/24 09:52:34;;;;;;;9.57;6.67;;;;;;;25.78;68.75;152461.34;4995975;28;20252;-57
2023/08/24 09:55:06;;;;;;;10.77;6.90;;;;;;;25.95;67.75;152502.78;4992372;28;20217;-57
2023/08/24 09:57:37;;;;;;;12.23;6.87;;;;;;;26.11;66.21;152541.72;4976164;28;20326;-58
2023/08/24 10:00:10;;;;;;;7.40;5.93;;;;;;;26.16;66.58;152554.34;4995742;28;20286;-57
2023/08/24 10:02:38;;;;;;;11.40;7.00;;;;;;;26.17;66.61;152556.84;4992263;28;20325;-57
2023/08/24 10:05:07;;;;;;;10.23;6.63;;;;;;;26.22;67.12;152569.44;4995399;28;20677;-57
2023/08/24 10:07:35;;;;;;;11.93;6.37;;;;;;;26.32;65.10;152592.06;4991253;28;20321;-58
2023/08/24 10:10:04;;;;;;;9.67;6.90;;;;;;;26.28;65.32;152583.28;4996865;28;20234;-57
2023/08/24 10:12:37;;;;;;;9.17;6.70;;;;;;;26.21;65.46;152565.69;4990838;28;20286;-58
2023/08/24 10:15:07;;;;;;;8.57;7.27;;;;;;;26.07;65.42;152532.97;4993731;28;20228;-57
2023/08/24 10:17:35;;;;;;;8.03;5.90;;;;;;;26.37;64.93;152605.91;4990775;28;20284;-58
2023/08/24 10:20:04;;;;;;;12.77;7.00;;;;;;;26.38;65.58;152607.13;4994394;28;20228;-58
2023/08/24 10:22:32;;;;;;;9.97;6.80;;;;;;;26.40;62.79;152612.16;4992030;28;20250;-57
2023/08/24 10:24:59;;;;;;;8.77;6.30;;;;;;;26.53;63.92;152643.56;4993569;28;20215;-57
2023/08/24 10:27:28;;;;;;;10.33;6.00;;;;;;;26.69;63.26;152682.56;4994672;28;20222;-58
2023/08/24 10:29:54;;;;;;;11.63;6.60;;;;;;;26.61;63.55;152663.69;4996498;28;20249;-57
2023/08/24 10:32:24;;;;;;;12.30;6.67;;;;;;;26.46;65.76;152626.00;4992691;28;20228;-57
2023/08/24 10:34:50;;;;;;;11.70;7.10;;;;;;;26.44;64.71;152620.97;4993627;28;20237;-58
2023/08/24 10:37:17;;;;;;;10.60;6.67;;;;;;;26.61;63.83;152662.44;4990991;28;20234;-56
2023/08/24 10:39:47;;;;;;;9.60;6.30;;;;;;;26.77;63.93;152702.66;4995189;28;20234;-56
2023/08/24 10:42:16;;;;;;;11.70;6.73;;;;;;;26.84;62.50;152717.81;4991326;28;20223;-56
2023/08/24 10:44:45;;;;;;;11.13;6.70;;;;;;;26.81;62.27;152711.44;4993413;28;20227;-56
2023/08/24 10:47:19;;;;;;;9.27;7.17;;;;;;;26.76;64.47;152700.16;4970032;28;20335;-56
2023/08/24 10:50:00;;;;;;;12.03;6.47;;;;;;;26.96;63.77;152747.97;4996632;28;20230;-56
2023/08/24 10:52:32;;;;;;;9.57;6.20;;;;;;;27.15;62.11;152794.47;4988634;28;20230;-56
2023/08/24 10:55:02;;;;;;;8.43;6.90;;;;;;;27.03;63.33;152765.53;4993333;28;20243;-56
2023/08/24 10:57:37;;;;;;;9.33;6.57;;;;;;;27.07;63.99;152775.59;4994381;28;20225;-56
2023/08/24 11:00:06;;;;;;;8.53;6.87;;;;;;;27.14;63.75;152790.69;4993602;28;20218;-56
2023/08/24 11:02:43;;;;;;;10.90;6.97;;;;;;;27.08;66.91;152778.09;4988644;28;20239;-56
2023/08/24 11:05:19;;;;;;;9.60;6.80;;;;;;;27.38;64.59;152849.81;4991253;28;20630;-56
2023/08/24 11:07:49;;;;;;;9.43;6.87;;;;;;;27.38;63.07;152851.03;4990421;28;20253;-56
2023/08/24 11:10:17;;;;;;;7.87;7.07;;;;;;;27.30;64.48;152830.91;4991590;28;20309;-56
2023/08/24 11:13:09;;;;;;;12.27;7.53;;;;;;;27.35;65.03;152843.50;4995839;28;20246;-56
2023/08/24 11:15:39;;;;;;;7.93;7.23;;;;;;;27.44;65.39;152863.63;4990487;28;20229;-56
2023/08/24 11:18:13;;;;;;;10.50;7.13;;;;;;;27.66;62.93;152917.72;4992993;28;20223;-56
2023/08/24 11:20:44;;;;;;;9.10;7.05;;;;;;;27.53;63.17;152887.59;4992445;28;20715;-56
2023/08/24 11:23:10;;;;;;;8.80;6.20;;;;;;;27.69;61.98;152925.28;4988865;28;20756;-56
2023/08/24 11:25:37;;;;;;;10.27;6.03;;;;;;;27.76;61.10;152942.88;4992986;28;20251;-56
2023/08/24 11:28:04;;;;;;;10.43;7.30;;;;;;;27.73;62.25;152934.09;4992711;28;20246;-56